sensor_id;sensor_type;location;lat;lon;timestamp;temperature;humidity
5200;DHT22;2619;47.868;11.892;2023-03-11T00:01:51;2.00;99.90
5200;DHT22;2619;47.868;11.892;2023-03-11T00:04:17;1.90;99.90
5200;DHT22;2619;47.868;11.892;2023-03-11T00:06:42;1.80;99.90
5200;DHT22;2619;47.868;11.892;2023-03-11T00:09:08;1.70;99.90
5200;DHT22;2619;47.868;11.892;2023-03-11T00:11:34;1.70;99.90
5200;DHT22;2619;47.868;11.892;2023-03-11T00:13:59;1.60;99.90
5200;DHT22;2619;47.868;11.892;2023-03-11T00:16:25;1.60;99.90
5200;DHT22;2619;47.868;11.892;2023-03-11T00:18:51;1.60;99.90
5200;DHT22;2619;47.868;11.892;2023-03-11T00:21:18;1.60;99.90
5200;DHT22;2619;47.868;11.892;2023-03-11T00:23:45;1.60;99.90
5200;DHT22;2619;47.868;11.892;2023-03-11T00:26:11;1.60;99.90
5200;DHT22;2619;47.868;11.892;2023-03-11T00:28:36;1.70;99.90
5200;DHT22;2619;47.868;11.892;2023-03-11T00:31:02;1.60;99.90
5200;DHT22;2619;47.868;11.892;2023-03-11T00:33:28;1.60;99.90
5200;DHT22;2619;47.868;11.892;2023-03-11T00:35:54;1.60;99.90
5200;DHT22;2619;47.868;11.892;2023-03-11T00:38:20;1.60;99.90
5200;DHT22;2619;47.868;11.892;2023-03-11T00:40:47;1.70;99.90
5200;DHT22;2619;47.868;11.892;2023-03-11T00:43:13;1.70;99.90
5200;DHT22;2619;47.868;11.892;2023-03-11T00:45:39;1.70;99.90
5200;DHT22;2619;47.868;11.892;2023-03-11T00:48:05;1.80;99.90
5200;DHT22;2619;47.868;11.892;2023-03-11T00:50:34;1.70;99.90
5200;DHT22;2619;47.868;11.892;2023-03-11T00:53:00;1.80;99.90
5200;DHT22;2619;47.868;11.892;2023-03-11T00:55:32;1.80;99.90
5200;DHT22;2619;47.868;11.892;2023-03-11T00:58:00;1.80;99.90
5200;DHT22;2619;47.868;11.892;2023-03-11T01:00:28;1.80;99.90
5200;DHT22;2619;47.868;11.892;2023-03-11T01:02:55;1.90;99.90
5200;DHT22;2619;47.868;11.892;2023-03-11T01:05:24;1.90;99.90
5200;DHT22;2619;47.868;11.892;2023-03-11T01:07:50;1.80;99.90
5200;DHT22;2619;47.868;11.892;2023-03-11T01:10:16;1.80;99.90
5200;DHT22;2619;47.868;11.892;2023-03-11T01:12:42;1.90;99.90
5200;DHT22;2619;47.868;11.892;2023-03-11T01:15:11;1.90;99.90
5200;DHT22;2619;47.868;11.892;2023-03-11T01:17:39;1.90;99.90
5200;DHT22;2619;47.868;11.892;2023-03-11T01:20:04;1.90;99.90
5200;DHT22;2619;47.868;11.892;2023-03-11T01:22:32;1.90;99.90
5200;DHT22;2619;47.868;11.892;2023-03-11T01:24:58;2.00;99.90
5200;DHT22;2619;47.868;11.892;2023-03-11T01:27:23;2.00;99.90
5200;DHT22;2619;47.868;11.892;2023-03-11T01:29:49;2.00;99.90
5200;DHT22;2619;47.868;11.892;2023-03-11T01:32:15;2.00;99.90
5200;DHT22;2619;47.868;11.892;2023-03-11T01:34:41;2.00;99.90
5200;DHT22;2619;47.868;11.892;2023-03-11T01:37:06;2.00;99.90
5200;DHT22;2619;47.868;11.892;2023-03-11T01:39:32;2.00;99.90
5200;DHT22;2619;47.868;11.892;2023-03-11T01:41:57;2.00;99.90
5200;DHT22;2619;47.868;11.892;2023-03-11T01:44:23;2.00;99.90
5200;DHT22;2619;47.868;11.892;2023-03-11T01:49:18;1.90;99.90
5200;DHT22;2619;47.868;11.892;2023-03-11T01:52:02;1.90;99.90
5200;DHT22;2619;47.868;11.892;2023-03-11T01:54:33;1.90;99.90
5200;DHT22;2619;47.868;11.892;2023-03-11T01:57:01;2.00;99.90
5200;DHT22;2619;47.868;11.892;2023-03-11T01:59:32;1.80;99.90
5200;DHT22;2619;47.868;11.892;2023-03-11T02:02:31;1.80;99.90
5200;DHT22;2619;47.868;11.892;2023-03-11T02:05:00;1.80;99.90
5200;DHT22;2619;47.868;11.892;2023-03-11T02:07:27;1.70;99.90
5200;DHT22;2619;47.868;11.892;2023-03-11T02:09:52;1.80;99.90
5200;DHT22;2619;47.868;11.892;2023-03-11T02:12:18;1.80;99.90
5200;DHT22;2619;47.868;11.892;2023-03-11T02:14:47;1.80;99.90
5200;DHT22;2619;47.868;11.892;2023-03-11T02:17:13;1.70;99.90
5200;DHT22;2619;47.868;11.892;2023-03-11T02:20:01;1.70;99.90
5200;DHT22;2619;47.868;11.892;2023-03-11T02:22:30;1.70;99.90
5200;DHT22;2619;47.868;11.892;2023-03-11T02:27:52;1.60;99.90
5200;DHT22;2619;47.868;11.892;2023-03-11T02:30:21;1.50;99.90
5200;DHT22;2619;47.868;11.892;2023-03-11T02:32:47;1.50;99.90
5200;DHT22;2619;47.868;11.892;2023-03-11T02:35:14;1.60;99.90
5200;DHT22;2619;47.868;11.892;2023-03-11T02:37:45;1.60;99.90
5200;DHT22;2619;47.868;11.892;2023-03-11T02:42:54;1.50;99.90
5200;DHT22;2619;47.868;11.892;2023-03-11T02:45:23;1.50;99.90
5200;DHT22;2619;47.868;11.892;2023-03-11T02:47:51;1.50;99.90
5200;DHT22;2619;47.868;11.892;2023-03-11T02:50:17;1.60;99.90
5200;DHT22;2619;47.868;11.892;2023-03-11T02:52:43;1.60;99.90
5200;DHT22;2619;47.868;11.892;2023-03-11T02:55:10;1.60;99.90
5200;DHT22;2619;47.868;11.892;2023-03-11T02:57:37;1.60;99.90
5200;DHT22;2619;47.868;11.892;2023-03-11T03:00:04;1.60;99.90
5200;DHT22;2619;47.868;11.892;2023-03-11T03:02:39;1.60;99.90
5200;DHT22;2619;47.868;11.892;2023-03-11T03:05:05;1.60;99.90
5200;DHT22;2619;47.868;11.892;2023-03-11T03:07:31;1.60;99.90
5200;DHT22;2619;47.868;11.892;2023-03-11T03:09:56;1.60;99.90
5200;DHT22;2619;47.868;11.892;2023-03-11T03:12:22;1.60;99.90
5200;DHT22;2619;47.868;11.892;2023-03-11T03:14:48;1.60;99.90
5200;DHT22;2619;47.868;11.892;2023-03-11T03:17:13;1.60;99.90
5200;DHT22;2619;47.868;11.892;2023-03-11T03:19:39;1.60;99.90
5200;DHT22;2619;47.868;11.892;2023-03-11T03:22:05;1.50;99.90
5200;DHT22;2619;47.868;11.892;2023-03-11T03:24:30;1.60;99.90
5200;DHT22;2619;47.868;11.892;2023-03-11T03:26:56;1.60;99.90
5200;DHT22;2619;47.868;11.892;2023-03-11T03:29:22;1.70;99.90
5200;DHT22;2619;47.868;11.892;2023-03-11T03:31:47;1.60;99.90
5200;DHT22;2619;47.868;11.892;2023-03-11T03:34:13;1.60;99.90
5200;DHT22;2619;47.868;11.892;2023-03-11T03:36:39;1.50;99.90
5200;DHT22;2619;47.868;11.892;2023-03-11T03:39:05;1.50;99.90
5200;DHT22;2619;47.868;11.892;2023-03-11T03:41:30;1.50;99.90
5200;DHT22;2619;47.868;11.892;2023-03-11T03:43:56;1.50;99.90
5200;DHT22;2619;47.868;11.892;2023-03-11T03:46:22;1.50;99.90
5200;DHT22;2619;47.868;11.892;2023-03-11T03:48:48;1.50;99.90
5200;DHT22;2619;47.868;11.892;2023-03-11T03:51:15;1.40;99.90
5200;DHT22;2619;47.868;11.892;2023-03-11T03:53:41;1.50;99.90
5200;DHT22;2619;47.868;11.892;2023-03-11T03:56:11;1.40;99.90
5200;DHT22;2619;47.868;11.892;2023-03-11T03:58:38;1.50;99.90
5200;DHT22;2619;47.868;11.892;2023-03-11T04:01:05;1.40;99.90
5200;DHT22;2619;47.868;11.892;2023-03-11T04:03:31;1.40;99.90
5200;DHT22;2619;47.868;11.892;2023-03-11T04:06:15;1.40;99.90
5200;DHT22;2619;47.868;11.892;2023-03-11T04:08:41;1.40;99.90
5200;DHT22;2619;47.868;11.892;2023-03-11T04:11:06;1.40;99.90
5200;DHT22;2619;47.868;11.892;2023-03-11T04:13:32;1.40;99.90
5200;DHT22;2619;47.868;11.892;2023-03-11T04:15:58;1.40;99.90
5200;DHT22;2619;47.868;11.892;2023-03-11T04:18:23;1.40;99.90
5200;DHT22;2619;47.868;11.892;2023-03-11T04:20:49;1.40;99.90
5200;DHT22;2619;47.868;11.892;2023-03-11T04:23:15;1.40;99.90
5200;DHT22;2619;47.868;11.892;2023-03-11T04:25:41;1.40;99.90
5200;DHT22;2619;47.868;11.892;2023-03-11T04:28:06;1.30;99.90
5200;DHT22;2619;47.868;11.892;2023-03-11T04:30:32;1.30;99.90
5200;DHT22;2619;47.868;11.892;2023-03-11T04:32:58;1.30;99.90
5200;DHT22;2619;47.868;11.892;2023-03-11T04:35:23;1.30;99.90
5200;DHT22;2619;47.868;11.892;2023-03-11T04:37:49;1.30;99.90
5200;DHT22;2619;47.868;11.892;2023-03-11T04:40:14;1.30;99.90
5200;DHT22;2619;47.868;11.892;2023-03-11T04:42:40;1.30;99.90
5200;DHT22;2619;47.868;11.892;2023-03-11T04:45:06;1.20;99.90
5200;DHT22;2619;47.868;11.892;2023-03-11T04:47:32;1.20;99.90
5200;DHT22;2619;47.868;11.892;2023-03-11T04:49:58;1.20;99.90
5200;DHT22;2619;47.868;11.892;2023-03-11T04:52:24;1.20;99.90
5200;DHT22;2619;47.868;11.892;2023-03-11T04:54:49;1.20;99.90
5200;DHT22;2619;47.868;11.892;2023-03-11T04:57:15;1.10;99.90
5200;DHT22;2619;47.868;11.892;2023-03-11T04:59:40;1.10;99.90
5200;DHT22;2619;47.868;11.892;2023-03-11T05:02:06;1.10;99.90
5200;DHT22;2619;47.868;11.892;2023-03-11T05:04:32;1.10;99.90
5200;DHT22;2619;47.868;11.892;2023-03-11T05:06:57;1.00;99.90
5200;DHT22;2619;47.868;11.892;2023-03-11T05:09:23;1.00;99.90
5200;DHT22;2619;47.868;11.892;2023-03-11T05:11:49;1.10;99.90
5200;DHT22;2619;47.868;11.892;2023-03-11T05:14:14;1.00;99.90
5200;DHT22;2619;47.868;11.892;2023-03-11T05:16:40;1.00;99.90
5200;DHT22;2619;47.868;11.892;2023-03-11T05:19:05;1.00;99.90
5200;DHT22;2619;47.868;11.892;2023-03-11T05:21:51;0.90;99.90
5200;DHT22;2619;47.868;11.892;2023-03-11T05:24:16;1.00;99.90
5200;DHT22;2619;47.868;11.892;2023-03-11T05:26:42;1.00;99.90
5200;DHT22;2619;47.868;11.892;2023-03-11T05:29:08;1.00;99.90
5200;DHT22;2619;47.868;11.892;2023-03-11T05:31:33;1.00;99.90
5200;DHT22;2619;47.868;11.892;2023-03-11T05:33:59;1.00;99.90
5200;DHT22;2619;47.868;11.892;2023-03-11T05:36:24;1.00;99.90
5200;DHT22;2619;47.868;11.892;2023-03-11T05:38:50;1.00;99.90
5200;DHT22;2619;47.868;11.892;2023-03-11T05:41:17;1.00;99.90
5200;DHT22;2619;47.868;11.892;2023-03-11T05:43:43;1.00;99.90
5200;DHT22;2619;47.868;11.892;2023-03-11T05:46:09;1.10;99.90
5200;DHT22;2619;47.868;11.892;2023-03-11T05:48:35;1.20;99.90
5200;DHT22;2619;47.868;11.892;2023-03-11T05:51:08;1.20;99.90
5200;DHT22;2619;47.868;11.892;2023-03-11T05:53:35;1.20;99.90
5200;DHT22;2619;47.868;11.892;2023-03-11T05:56:00;1.30;99.90
5200;DHT22;2619;47.868;11.892;2023-03-11T05:58:27;1.30;99.90
5200;DHT22;2619;47.868;11.892;2023-03-11T06:00:53;1.30;99.90
5200;DHT22;2619;47.868;11.892;2023-03-11T06:03:19;1.30;99.90
5200;DHT22;2619;47.868;11.892;2023-03-11T06:05:48;1.30;99.90
5200;DHT22;2619;47.868;11.892;2023-03-11T06:08:15;1.30;99.90
5200;DHT22;2619;47.868;11.892;2023-03-11T06:10:41;1.30;99.90
5200;DHT22;2619;47.868;11.892;2023-03-11T06:13:07;1.30;99.90
5200;DHT22;2619;47.868;11.892;2023-03-11T06:15:33;1.30;99.90
5200;DHT22;2619;47.868;11.892;2023-03-11T06:17:59;1.30;99.90
5200;DHT22;2619;47.868;11.892;2023-03-11T06:20:25;1.30;99.90
5200;DHT22;2619;47.868;11.892;2023-03-11T06:22:51;1.30;99.90
5200;DHT22;2619;47.868;11.892;2023-03-11T06:25:16;1.30;99.90
5200;DHT22;2619;47.868;11.892;2023-03-11T06:27:42;1.30;99.90
5200;DHT22;2619;47.868;11.892;2023-03-11T06:30:09;1.30;99.90
5200;DHT22;2619;47.868;11.892;2023-03-11T06:32:35;1.30;99.90
5200;DHT22;2619;47.868;11.892;2023-03-11T06:35:02;1.40;99.90
5200;DHT22;2619;47.868;11.892;2023-03-11T06:37:28;1.40;99.90
5200;DHT22;2619;47.868;11.892;2023-03-11T06:39:54;1.50;99.90
5200;DHT22;2619;47.868;11.892;2023-03-11T06:42:20;1.60;99.90
5200;DHT22;2619;47.868;11.892;2023-03-11T06:44:48;1.50;99.90
5200;DHT22;2619;47.868;11.892;2023-03-11T06:47:14;1.40;99.90
5200;DHT22;2619;47.868;11.892;2023-03-11T06:49:40;1.50;99.90
5200;DHT22;2619;47.868;11.892;2023-03-11T06:52:07;1.50;99.90
5200;DHT22;2619;47.868;11.892;2023-03-11T06:54:34;1.60;99.90
5200;DHT22;2619;47.868;11.892;2023-03-11T06:57:00;1.60;99.90
5200;DHT22;2619;47.868;11.892;2023-03-11T06:59:25;1.60;99.90
5200;DHT22;2619;47.868;11.892;2023-03-11T07:01:53;1.60;99.90
5200;DHT22;2619;47.868;11.892;2023-03-11T07:04:19;1.60;99.90
5200;DHT22;2619;47.868;11.892;2023-03-11T07:06:44;1.60;99.90
5200;DHT22;2619;47.868;11.892;2023-03-11T07:09:10;1.60;99.90
5200;DHT22;2619;47.868;11.892;2023-03-11T07:11:36;1.60;99.90
5200;DHT22;2619;47.868;11.892;2023-03-11T07:14:02;1.60;99.90
5200;DHT22;2619;47.868;11.892;2023-03-11T07:16:28;1.60;99.90
5200;DHT22;2619;47.868;11.892;2023-03-11T07:18:56;1.60;99.90
5200;DHT22;2619;47.868;11.892;2023-03-11T07:21:23;1.60;99.90
5200;DHT22;2619;47.868;11.892;2023-03-11T07:23:57;1.50;99.90
5200;DHT22;2619;47.868;11.892;2023-03-11T07:26:25;1.50;99.90
5200;DHT22;2619;47.868;11.892;2023-03-11T07:28:53;1.40;99.90
5200;DHT22;2619;47.868;11.892;2023-03-11T07:31:21;1.40;99.90
5200;DHT22;2619;47.868;11.892;2023-03-11T07:33:48;1.30;99.90
5200;DHT22;2619;47.868;11.892;2023-03-11T07:36:15;1.40;99.90
5200;DHT22;2619;47.868;11.892;2023-03-11T07:38:42;1.50;99.90
5200;DHT22;2619;47.868;11.892;2023-03-11T07:41:09;1.70;99.90
5200;DHT22;2619;47.868;11.892;2023-03-11T07:43:36;1.90;99.90
5200;DHT22;2619;47.868;11.892;2023-03-11T07:46:07;1.90;99.90
5200;DHT22;2619;47.868;11.892;2023-03-11T07:48:34;1.80;99.90
5200;DHT22;2619;47.868;11.892;2023-03-11T07:51:14;1.70;99.90
5200;DHT22;2619;47.868;11.892;2023-03-11T07:53:40;1.80;99.90
5200;DHT22;2619;47.868;11.892;2023-03-11T07:56:09;1.90;99.90
5200;DHT22;2619;47.868;11.892;2023-03-11T07:58:35;1.90;99.90
5200;DHT22;2619;47.868;11.892;2023-03-11T08:01:09;1.90;99.90
5200;DHT22;2619;47.868;11.892;2023-03-11T08:03:35;2.00;99.90
5200;DHT22;2619;47.868;11.892;2023-03-11T08:06:01;1.90;99.90
5200;DHT22;2619;47.868;11.892;2023-03-11T08:08:27;1.80;99.90
5200;DHT22;2619;47.868;11.892;2023-03-11T08:10:53;1.90;99.90
5200;DHT22;2619;47.868;11.892;2023-03-11T08:13:19;1.70;99.90
5200;DHT22;2619;47.868;11.892;2023-03-11T08:15:44;1.70;99.90
5200;DHT22;2619;47.868;11.892;2023-03-11T08:18:10;1.70;99.90
5200;DHT22;2619;47.868;11.892;2023-03-11T08:20:39;1.80;99.90
5200;DHT22;2619;47.868;11.892;2023-03-11T08:23:05;1.90;99.90
5200;DHT22;2619;47.868;11.892;2023-03-11T08:25:30;1.90;99.90
5200;DHT22;2619;47.868;11.892;2023-03-11T08:27:56;2.10;99.90
5200;DHT22;2619;47.868;11.892;2023-03-11T08:30:22;2.20;99.90
5200;DHT22;2619;47.868;11.892;2023-03-11T08:32:48;2.00;99.90
5200;DHT22;2619;47.868;11.892;2023-03-11T08:35:15;2.10;99.90
5200;DHT22;2619;47.868;11.892;2023-03-11T08:37:41;2.20;99.90
5200;DHT22;2619;47.868;11.892;2023-03-11T08:40:07;2.20;99.90
5200;DHT22;2619;47.868;11.892;2023-03-11T08:42:34;2.30;99.90
5200;DHT22;2619;47.868;11.892;2023-03-11T08:45:00;2.40;99.90
5200;DHT22;2619;47.868;11.892;2023-03-11T08:47:26;2.50;99.90
5200;DHT22;2619;47.868;11.892;2023-03-11T08:49:51;2.50;99.90
5200;DHT22;2619;47.868;11.892;2023-03-11T08:52:17;2.40;99.90
5200;DHT22;2619;47.868;11.892;2023-03-11T08:54:43;2.30;99.90
5200;DHT22;2619;47.868;11.892;2023-03-11T08:57:08;2.40;99.90
5200;DHT22;2619;47.868;11.892;2023-03-11T08:59:35;2.50;99.90
5200;DHT22;2619;47.868;11.892;2023-03-11T09:02:01;2.60;99.90
5200;DHT22;2619;47.868;11.892;2023-03-11T09:04:26;2.70;99.90
5200;DHT22;2619;47.868;11.892;2023-03-11T09:06:52;2.80;99.90
5200;DHT22;2619;47.868;11.892;2023-03-11T09:09:17;2.80;99.90
5200;DHT22;2619;47.868;11.892;2023-03-11T09:11:46;2.90;99.90
5200;DHT22;2619;47.868;11.892;2023-03-11T09:14:13;2.70;99.90
5200;DHT22;2619;47.868;11.892;2023-03-11T09:16:39;2.80;99.90
5200;DHT22;2619;47.868;11.892;2023-03-11T09:19:05;2.70;99.90
5200;DHT22;2619;47.868;11.892;2023-03-11T09:21:35;2.80;99.90
5200;DHT22;2619;47.868;11.892;2023-03-11T09:24:02;2.80;99.90
5200;DHT22;2619;47.868;11.892;2023-03-11T09:26:29;3.10;99.90
5200;DHT22;2619;47.868;11.892;2023-03-11T09:28:56;3.20;99.90
5200;DHT22;2619;47.868;11.892;2023-03-11T09:31:22;3.40;99.90
5200;DHT22;2619;47.868;11.892;2023-03-11T09:33:48;3.60;99.90
5200;DHT22;2619;47.868;11.892;2023-03-11T09:36:17;3.80;99.90
5200;DHT22;2619;47.868;11.892;2023-03-11T09:38:43;3.80;99.90
5200;DHT22;2619;47.868;11.892;2023-03-11T09:58:13;3.90;99.90
5200;DHT22;2619;47.868;11.892;2023-03-11T10:00:40;4.00;99.90
5200;DHT22;2619;47.868;11.892;2023-03-11T10:03:19;4.10;99.90
5200;DHT22;2619;47.868;11.892;2023-03-11T10:05:46;4.10;99.90
5200;DHT22;2619;47.868;11.892;2023-03-11T10:08:24;3.80;99.90
5200;DHT22;2619;47.868;11.892;2023-03-11T10:14:38;3.30;99.90
5200;DHT22;2619;47.868;11.892;2023-03-11T10:17:26;3.10;99.90
5200;DHT22;2619;47.868;11.892;2023-03-11T10:25:20;2.90;99.90
5200;DHT22;2619;47.868;11.892;2023-03-11T10:28:00;3.20;99.90
5200;DHT22;2619;47.868;11.892;2023-03-11T10:33:17;4.10;99.90
5200;DHT22;2619;47.868;11.892;2023-03-11T10:35:50;4.50;99.90
5200;DHT22;2619;47.868;11.892;2023-03-11T10:38:26;4.60;99.90
5200;DHT22;2619;47.868;11.892;2023-03-11T10:40:56;4.40;99.90
5200;DHT22;2619;47.868;11.892;2023-03-11T10:43:27;4.40;99.90
5200;DHT22;2619;47.868;11.892;2023-03-11T10:45:54;4.80;99.90
5200;DHT22;2619;47.868;11.892;2023-03-11T10:48:21;5.10;99.90
5200;DHT22;2619;47.868;11.892;2023-03-11T10:53:30;5.30;99.90
5200;DHT22;2619;47.868;11.892;2023-03-11T10:55:57;5.80;99.90
5200;DHT22;2619;47.868;11.892;2023-03-11T10:58:28;5.80;99.90
5200;DHT22;2619;47.868;11.892;2023-03-11T11:03:35;4.90;99.90
5200;DHT22;2619;47.868;11.892;2023-03-11T11:06:06;5.00;99.90
5200;DHT22;2619;47.868;11.892;2023-03-11T11:08:35;4.70;99.90
5200;DHT22;2619;47.868;11.892;2023-03-11T11:11:02;4.90;99.90
5200;DHT22;2619;47.868;11.892;2023-03-11T11:13:30;5.10;99.90
5200;DHT22;2619;47.868;11.892;2023-03-11T11:18:53;5.30;99.90
5200;DHT22;2619;47.868;11.892;2023-03-11T11:21:37;5.30;99.90
5200;DHT22;2619;47.868;11.892;2023-03-11T11:24:23;5.50;99.90
5200;DHT22;2619;47.868;11.892;2023-03-11T11:27:18;5.60;98.60
5200;DHT22;2619;47.868;11.892;2023-03-11T11:29:45;6.00;99.90
5200;DHT22;2619;47.868;11.892;2023-03-11T11:32:16;6.40;99.90
5200;DHT22;2619;47.868;11.892;2023-03-11T11:37:24;7.20;99.60
5200;DHT22;2619;47.868;11.892;2023-03-11T11:39:57;7.30;98.30
5200;DHT22;2619;47.868;11.892;2023-03-11T11:42:24;7.30;97.10
5200;DHT22;2619;47.868;11.892;2023-03-11T11:45:02;7.20;98.20
5200;DHT22;2619;47.868;11.892;2023-03-11T11:47:35;7.30;98.90
5200;DHT22;2619;47.868;11.892;2023-03-11T11:50:05;7.20;99.50
5200;DHT22;2619;47.868;11.892;2023-03-11T11:52:43;7.10;97.90
5200;DHT22;2619;47.868;11.892;2023-03-11T11:55:23;6.90;98.30
5200;DHT22;2619;47.868;11.892;2023-03-11T11:57:50;6.40;97.80
5200;DHT22;2619;47.868;11.892;2023-03-11T12:00:21;6.10;98.00
5200;DHT22;2619;47.868;11.892;2023-03-11T12:05:57;5.70;99.90
5200;DHT22;2619;47.868;11.892;2023-03-11T12:08:31;5.70;99.30
5200;DHT22;2619;47.868;11.892;2023-03-11T12:11:09;5.80;99.90
5200;DHT22;2619;47.868;11.892;2023-03-11T12:13:58;6.00;99.90
5200;DHT22;2619;47.868;11.892;2023-03-11T12:16:57;5.90;97.90
5200;DHT22;2619;47.868;11.892;2023-03-11T12:22:24;6.30;97.50
5200;DHT22;2619;47.868;11.892;2023-03-11T12:27:45;6.00;95.70
5200;DHT22;2619;47.868;11.892;2023-03-11T12:30:34;6.00;96.30
5200;DHT22;2619;47.868;11.892;2023-03-11T12:33:28;6.00;96.00
5200;DHT22;2619;47.868;11.892;2023-03-11T12:35:57;5.80;96.50
5200;DHT22;2619;47.868;11.892;2023-03-11T12:38:32;5.50;97.60
5200;DHT22;2619;47.868;11.892;2023-03-11T12:40:59;5.20;96.70
5200;DHT22;2619;47.868;11.892;2023-03-11T12:46:07;5.30;99.10
5200;DHT22;2619;47.868;11.892;2023-03-11T12:48:43;5.70;97.90
5200;DHT22;2619;47.868;11.892;2023-03-11T12:53:51;5.80;98.70
5200;DHT22;2619;47.868;11.892;2023-03-11T12:56:42;6.00;99.10
5200;DHT22;2619;47.868;11.892;2023-03-11T13:02:24;6.70;98.70
5200;DHT22;2619;47.868;11.892;2023-03-11T13:04:58;7.20;97.90
5200;DHT22;2619;47.868;11.892;2023-03-11T13:10:40;6.50;93.80
5200;DHT22;2619;47.868;11.892;2023-03-11T13:13:40;6.20;96.10
5200;DHT22;2619;47.868;11.892;2023-03-11T13:18:40;6.10;96.90
5200;DHT22;2619;47.868;11.892;2023-03-11T13:23:52;6.70;97.10
5200;DHT22;2619;47.868;11.892;2023-03-11T13:32:05;7.50;93.80
5200;DHT22;2619;47.868;11.892;2023-03-11T13:40:25;7.10;94.30
5200;DHT22;2619;47.868;11.892;2023-03-11T13:42:56;7.20;93.70
5200;DHT22;2619;47.868;11.892;2023-03-11T13:45:29;7.00;94.70
5200;DHT22;2619;47.868;11.892;2023-03-11T13:48:02;6.70;93.00
5200;DHT22;2619;47.868;11.892;2023-03-11T13:50:35;6.60;92.90
5200;DHT22;2619;47.868;11.892;2023-03-11T13:53:07;6.60;93.50
5200;DHT22;2619;47.868;11.892;2023-03-11T13:55:40;6.70;93.20
5200;DHT22;2619;47.868;11.892;2023-03-11T13:58:19;6.60;93.60
5200;DHT22;2619;47.868;11.892;2023-03-11T14:00:51;6.60;94.00
5200;DHT22;2619;47.868;11.892;2023-03-11T14:03:17;6.50;93.20
5200;DHT22;2619;47.868;11.892;2023-03-11T14:05:55;6.70;93.30
5200;DHT22;2619;47.868;11.892;2023-03-11T14:10:55;6.40;92.30
5200;DHT22;2619;47.868;11.892;2023-03-11T14:13:22;6.30;93.90
5200;DHT22;2619;47.868;11.892;2023-03-11T14:18:39;6.30;92.90
5200;DHT22;2619;47.868;11.892;2023-03-11T14:21:17;5.90;92.40
5200;DHT22;2619;47.868;11.892;2023-03-11T14:23:51;5.90;93.50
5200;DHT22;2619;47.868;11.892;2023-03-11T14:26:29;6.00;93.30
5200;DHT22;2619;47.868;11.892;2023-03-11T14:28:57;6.00;93.10
5200;DHT22;2619;47.868;11.892;2023-03-11T14:39:31;6.10;93.40
5200;DHT22;2619;47.868;11.892;2023-03-11T14:44:39;6.00;93.90
5200;DHT22;2619;47.868;11.892;2023-03-11T14:47:33;5.80;95.00
5200;DHT22;2619;47.868;11.892;2023-03-11T14:50:00;5.90;95.00
5200;DHT22;2619;47.868;11.892;2023-03-11T14:52:34;6.20;96.10
5200;DHT22;2619;47.868;11.892;2023-03-11T14:55:05;6.30;94.10
5200;DHT22;2619;47.868;11.892;2023-03-11T14:57:39;6.20;94.10
5200;DHT22;2619;47.868;11.892;2023-03-11T15:00:18;6.00;92.50
5200;DHT22;2619;47.868;11.892;2023-03-11T15:08:20;5.80;94.00
5200;DHT22;2619;47.868;11.892;2023-03-11T15:13:35;5.60;94.60
5200;DHT22;2619;47.868;11.892;2023-03-11T15:16:04;5.60;93.80
5200;DHT22;2619;47.868;11.892;2023-03-11T15:18:36;5.30;94.60
5200;DHT22;2619;47.868;11.892;2023-03-11T15:21:13;5.20;96.00
5200;DHT22;2619;47.868;11.892;2023-03-11T15:23:48;5.10;94.20
5200;DHT22;2619;47.868;11.892;2023-03-11T15:26:29;5.00;95.20
5200;DHT22;2619;47.868;11.892;2023-03-11T15:29:01;5.10;95.50
5200;DHT22;2619;47.868;11.892;2023-03-11T15:34:09;5.30;95.30
5200;DHT22;2619;47.868;11.892;2023-03-11T15:44:59;5.30;95.20
5200;DHT22;2619;47.868;11.892;2023-03-11T15:47:26;5.30;94.40
5200;DHT22;2619;47.868;11.892;2023-03-11T15:49:52;5.20;94.20
5200;DHT22;2619;47.868;11.892;2023-03-11T15:52:18;5.10;94.40
5200;DHT22;2619;47.868;11.892;2023-03-11T15:54:43;5.10;92.80
5200;DHT22;2619;47.868;11.892;2023-03-11T15:57:21;5.10;93.60
5200;DHT22;2619;47.868;11.892;2023-03-11T15:59:49;5.10;94.80
5200;DHT22;2619;47.868;11.892;2023-03-11T16:02:21;5.10;95.60
5200;DHT22;2619;47.868;11.892;2023-03-11T16:04:47;4.90;93.00
5200;DHT22;2619;47.868;11.892;2023-03-11T16:07:13;4.80;92.60
5200;DHT22;2619;47.868;11.892;2023-03-11T16:09:38;4.80;92.90
5200;DHT22;2619;47.868;11.892;2023-03-11T16:12:22;4.80;94.30
5200;DHT22;2619;47.868;11.892;2023-03-11T16:14:48;4.80;94.00
5200;DHT22;2619;47.868;11.892;2023-03-11T16:17:15;4.80;94.10
5200;DHT22;2619;47.868;11.892;2023-03-11T16:19:49;4.80;94.50
5200;DHT22;2619;47.868;11.892;2023-03-11T16:22:35;4.70;96.30
5200;DHT22;2619;47.868;11.892;2023-03-11T16:25:01;4.60;96.80
5200;DHT22;2619;47.868;11.892;2023-03-11T16:27:28;4.40;97.10
5200;DHT22;2619;47.868;11.892;2023-03-11T16:29:54;4.30;97.90
5200;DHT22;2619;47.868;11.892;2023-03-11T16:32:20;4.20;97.60
5200;DHT22;2619;47.868;11.892;2023-03-11T16:34:46;4.20;98.30
5200;DHT22;2619;47.868;11.892;2023-03-11T16:37:16;4.10;99.20
5200;DHT22;2619;47.868;11.892;2023-03-11T16:39:45;4.00;99.00
5200;DHT22;2619;47.868;11.892;2023-03-11T16:42:11;4.00;99.10
5200;DHT22;2619;47.868;11.892;2023-03-11T16:44:36;4.00;98.70
5200;DHT22;2619;47.868;11.892;2023-03-11T16:47:02;3.90;98.60
5200;DHT22;2619;47.868;11.892;2023-03-11T16:49:27;3.80;98.60
5200;DHT22;2619;47.868;11.892;2023-03-11T16:51:53;3.70;99.90
5200;DHT22;2619;47.868;11.892;2023-03-11T16:54:19;3.60;99.90
5200;DHT22;2619;47.868;11.892;2023-03-11T16:56:44;3.50;99.90
5200;DHT22;2619;47.868;11.892;2023-03-11T16:59:10;3.40;99.90
5200;DHT22;2619;47.868;11.892;2023-03-11T17:01:35;3.30;99.90
5200;DHT22;2619;47.868;11.892;2023-03-11T17:04:04;3.30;99.90
5200;DHT22;2619;47.868;11.892;2023-03-11T17:06:30;3.20;99.90
5200;DHT22;2619;47.868;11.892;2023-03-11T17:08:55;3.20;99.90
5200;DHT22;2619;47.868;11.892;2023-03-11T17:11:22;3.20;99.30
5200;DHT22;2619;47.868;11.892;2023-03-11T17:13:49;3.30;99.40
5200;DHT22;2619;47.868;11.892;2023-03-11T17:16:15;3.30;98.80
5200;DHT22;2619;47.868;11.892;2023-03-11T17:18:41;3.30;98.90
5200;DHT22;2619;47.868;11.892;2023-03-11T17:21:08;3.30;98.20
5200;DHT22;2619;47.868;11.892;2023-03-11T17:23:34;3.20;98.30
5200;DHT22;2619;47.868;11.892;2023-03-11T17:26:00;3.30;98.50
5200;DHT22;2619;47.868;11.892;2023-03-11T17:28:26;3.20;97.90
5200;DHT22;2619;47.868;11.892;2023-03-11T17:30:51;3.20;98.70
5200;DHT22;2619;47.868;11.892;2023-03-11T17:33:17;3.20;98.90
5200;DHT22;2619;47.868;11.892;2023-03-11T17:35:42;3.20;98.00
5200;DHT22;2619;47.868;11.892;2023-03-11T17:38:08;3.20;97.60
5200;DHT22;2619;47.868;11.892;2023-03-11T17:40:34;3.20;98.00
5200;DHT22;2619;47.868;11.892;2023-03-11T17:43:00;3.10;98.80
5200;DHT22;2619;47.868;11.892;2023-03-11T17:45:25;3.10;98.20
5200;DHT22;2619;47.868;11.892;2023-03-11T17:47:51;3.10;98.00
5200;DHT22;2619;47.868;11.892;2023-03-11T17:50:17;3.10;98.40
5200;DHT22;2619;47.868;11.892;2023-03-11T17:52:45;3.10;97.70
5200;DHT22;2619;47.868;11.892;2023-03-11T17:55:10;3.10;98.20
5200;DHT22;2619;47.868;11.892;2023-03-11T17:57:36;3.10;98.50
5200;DHT22;2619;47.868;11.892;2023-03-11T18:00:02;3.10;98.00
5200;DHT22;2619;47.868;11.892;2023-03-11T18:02:30;3.10;97.90
5200;DHT22;2619;47.868;11.892;2023-03-11T18:04:56;3.10;97.60
5200;DHT22;2619;47.868;11.892;2023-03-11T18:07:22;3.10;97.90
5200;DHT22;2619;47.868;11.892;2023-03-11T18:09:54;3.00;98.20
5200;DHT22;2619;47.868;11.892;2023-03-11T18:12:20;2.90;98.60